Time;durP1;ratioP1;P1;durP2;ratioP2;P2;SDS_P1;SDS_P2;PMS_P1;PMS_P2;Temp;Humidity;BMP_temperature;BMP_pressure;BME280_temperature;BME280_humidity;BME280_pressure;Samples;Min_cycle;Max_cycle;Signal;HPM_P1;HPM_P2
2023/08/02 00:00:35;;;;;;;;;;;15.00;99.90;;;;;;5004698;28;19931;-68
2023/08/02 00:03:02;;;;;;;;;;;15.00;99.90;;;;;;5005126;28;19976;-69
2023/08/02 00:05:28;;;;;;;;;;;15.00;99.90;;;;;;5004725;28;19953;-70
2023/08/02 00:07:55;;;;;;;;;;;15.00;99.90;;;;;;5004672;28;20225;-69
2023/08/02 00:10:22;;;;;;;;;;;15.00;99.90;;;;;;5003452;28;19928;-69
2023/08/02 00:12:51;;;;;;;;;;;15.00;99.90;;;;;;5005148;28;19958;-69
2023/08/02 00:15:18;;;;;;;;;;;15.00;99.90;;;;;;5004192;28;19934;-69
2023/08/02 00:17:44;;;;;;;;;;;15.00;99.90;;;;;;5005029;28;19985;-69
2023/08/02 00:20:11;;;;;;;;;;;14.90;99.90;;;;;;5004296;28;19989;-69
2023/08/02 00:22:38;;;;;;;;;;;14.90;99.90;;;;;;5004787;28;19936;-69
2023/08/02 00:25:05;;;;;;;;;;;14.90;99.90;;;;;;5004459;28;20210;-69
2023/08/02 00:27:31;;;;;;;;;;;14.90;99.90;;;;;;5004953;28;19921;-69
2023/08/02 00:29:59;;;;;;;;;;;14.90;99.90;;;;;;4989061;28;20001;-69
2023/08/02 00:32:26;;;;;;;;;;;14.90;99.90;;;;;;4984903;28;20025;-69
2023/08/02 00:34:54;;;;;;;;;;;14.90;99.90;;;;;;4985166;28;19941;-69
2023/08/02 00:37:21;;;;;;;;;;;14.90;99.90;;;;;;4985236;28;19930;-69
2023/08/02 00:39:50;;;;;;;;;;;14.90;99.90;;;;;;4997797;28;20260;-69
2023/08/02 00:42:16;;;;;;;;;;;14.80;99.90;;;;;;5004606;28;20142;-69
2023/08/02 00:44:43;;;;;;;;;;;14.80;99.90;;;;;;5000428;28;19940;-69
2023/08/02 00:47:11;;;;;;;;;;;14.80;99.90;;;;;;4984659;28;20313;-69
2023/08/02 00:49:37;;;;;;;;;;;14.80;99.90;;;;;;4984437;28;19985;-69
2023/08/02 00:52:04;;;;;;;;;;;14.80;99.90;;;;;;4984928;28;19937;-69
2023/08/02 00:54:31;;;;;;;;;;;14.80;99.90;;;;;;4984874;28;19961;-69
2023/08/02 00:56:58;;;;;;;;;;;14.70;99.90;;;;;;4984770;28;19981;-69
2023/08/02 00:59:24;;;;;;;;;;;14.70;99.90;;;;;;4993252;28;20224;-69
2023/08/02 01:01:51;;;;;;;;;;;14.70;99.90;;;;;;5004043;28;19928;-70
2023/08/02 01:04:19;;;;;;;;;;;14.70;99.90;;;;;;5004154;28;19957;-69
2023/08/02 01:06:48;;;;;;;;;;;14.70;99.90;;;;;;5004160;28;19922;-68
2023/08/02 01:09:18;;;;;;;;;;;14.60;99.90;;;;;;5003314;28;20218;-69
2023/08/02 01:11:47;;;;;;;;;;;14.60;99.90;;;;;;4991323;28;19989;-69
2023/08/02 01:14:15;;;;;;;;;;;14.50;99.90;;;;;;4984700;28;19965;-69
2023/08/02 01:16:42;;;;;;;;;;;14.50;99.90;;;;;;4985317;28;19981;-69
2023/08/02 01:19:09;;;;;;;;;;;14.50;99.90;;;;;;4990542;28;19989;-69
2023/08/02 01:21:37;;;;;;;;;;;14.50;99.90;;;;;;4990919;28;19977;-68
2023/08/02 01:24:04;;;;;;;;;;;14.40;99.90;;;;;;4990887;28;20218;-69
2023/08/02 01:26:32;;;;;;;;;;;14.40;99.90;;;;;;4991068;28;19957;-69
2023/08/02 01:29:00;;;;;;;;;;;14.40;99.90;;;;;;4991001;28;19981;-68
2023/08/02 01:31:28;;;;;;;;;;;14.40;99.90;;;;;;4990289;28;19981;-68
2023/08/02 01:33:56;;;;;;;;;;;14.40;99.90;;;;;;4990911;28;19981;-69
2023/08/02 01:36:23;;;;;;;;;;;14.40;99.90;;;;;;4990904;28;19960;-69
2023/08/02 01:38:51;;;;;;;;;;;14.40;99.90;;;;;;4991014;28;19964;-69
2023/08/02 01:41:18;;;;;;;;;;;14.30;99.90;;;;;;4990281;28;19989;-68
2023/08/02 01:43:44;;;;;;;;;;;14.20;99.90;;;;;;4990842;28;19981;-68
2023/08/02 01:46:11;;;;;;;;;;;14.20;99.90;;;;;;4990648;28;19928;-68
2023/08/02 01:48:38;;;;;;;;;;;14.30;99.90;;;;;;4990837;28;19994;-69
2023/08/02 01:51:04;;;;;;;;;;;14.30;99.90;;;;;;4989732;28;19922;-69
2023/08/02 01:53:31;;;;;;;;;;;14.20;99.90;;;;;;4990797;28;19922;-69
2023/08/02 01:55:59;;;;;;;;;;;14.20;99.90;;;;;;4990771;28;19922;-68
2023/08/02 01:58:25;;;;;;;;;;;14.20;99.90;;;;;;4990805;28;19957;-69
2023/08/02 02:00:52;;;;;;;;;;;14.20;99.90;;;;;;4989633;28;20209;-68
2023/08/02 02:03:19;;;;;;;;;;;14.20;99.90;;;;;;4990684;28;19993;-68
2023/08/02 02:05:51;;;;;;;;;;;14.10;99.90;;;;;;4990354;28;20221;-69
2023/08/02 02:08:18;;;;;;;;;;;14.20;99.90;;;;;;4990441;28;20063;-68
2023/08/02 02:10:48;;;;;;;;;;;14.10;99.90;;;;;;4989590;28;19965;-69
2023/08/02 02:13:16;;;;;;;;;;;14.10;99.90;;;;;;4990687;28;19945;-69
2023/08/02 02:15:42;;;;;;;;;;;14.10;99.90;;;;;;4990421;28;20154;-70
2023/08/02 02:18:09;;;;;;;;;;;14.00;99.90;;;;;;4990556;28;19928;-69
2023/08/02 02:20:35;;;;;;;;;;;14.00;99.90;;;;;;4989755;28;19922;-69
2023/08/02 02:23:02;;;;;;;;;;;14.10;99.90;;;;;;4990556;28;19922;-68
2023/08/02 02:25:29;;;;;;;;;;;14.10;99.90;;;;;;4990481;28;20113;-69
2023/08/02 02:27:55;;;;;;;;;;;14.00;99.90;;;;;;4989965;28;19984;-69
2023/08/02 02:30:23;;;;;;;;;;;14.00;99.90;;;;;;4985736;28;19944;-69
2023/08/02 02:32:50;;;;;;;;;;;14.00;99.90;;;;;;4987121;28;19990;-68
2023/08/02 02:35:17;;;;;;;;;;;14.00;99.90;;;;;;4987123;28;20269;-69
2023/08/02 02:37:43;;;;;;;;;;;14.00;99.90;;;;;;4987247;28;19985;-69
2023/08/02 02:40:10;;;;;;;;;;;14.00;99.90;;;;;;4986547;28;19981;-69
2023/08/02 02:42:38;;;;;;;;;;;14.00;99.90;;;;;;4986797;28;19985;-69
2023/08/02 02:45:05;;;;;;;;;;;14.00;99.90;;;;;;4987023;28;20118;-69
2023/08/02 02:47:39;;;;;;;;;;;14.00;99.90;;;;;;4987147;28;19922;-68
2023/08/02 02:50:07;;;;;;;;;;;14.00;99.90;;;;;;4986017;28;20371;-68
2023/08/02 02:52:52;;;;;;;;;;;14.00;99.90;;;;;;4986622;28;19922;-69
2023/08/02 02:55:18;;;;;;;;;;;14.00;99.90;;;;;;5023987;23;20178;-69
2023/08/02 02:57:45;;;;;;;;;;;14.00;99.90;;;;;;5026387;28;19928;-69
2023/08/02 03:00:49;;;;;;;;;;;14.00;99.90;;;;;;5025821;28;20000;-69
2023/08/02 03:03:17;;;;;;;;;;;14.00;99.90;;;;;;5026262;28;19988;-69
2023/08/02 03:05:43;;;;;;;;;;;14.00;99.90;;;;;;5025847;28;19945;-69
2023/08/02 03:08:10;;;;;;;;;;;14.00;99.90;;;;;;5026253;28;19927;-69
2023/08/02 03:10:36;;;;;;;;;;;14.00;99.90;;;;;;5025770;28;20362;-69
2023/08/02 03:13:03;;;;;;;;;;;14.00;99.90;;;;;;5026145;28;19957;-69
2023/08/02 03:15:30;;;;;;;;;;;14.00;99.90;;;;;;5025355;28;19922;-69
2023/08/02 03:17:56;;;;;;;;;;;14.00;99.90;;;;;;5006410;28;19928;-69
2023/08/02 03:20:24;;;;;;;;;;;13.90;99.90;;;;;;5006156;28;19981;-69
2023/08/02 03:22:51;;;;;;;;;;;14.00;99.90;;;;;;5006355;28;19985;-69
2023/08/02 03:25:18;;;;;;;;;;;13.90;99.90;;;;;;5006260;28;20162;-69
2023/08/02 03:27:44;;;;;;;;;;;13.90;99.90;;;;;;5005995;28;19957;-69
2023/08/02 03:30:11;;;;;;;;;;;13.90;99.90;;;;;;5006007;28;19943;-69
2023/08/02 03:32:38;;;;;;;;;;;13.90;99.90;;;;;;5006217;28;19928;-69
2023/08/02 03:35:05;;;;;;;;;;;13.80;99.90;;;;;;5006086;28;19921;-68
2023/08/02 03:37:33;;;;;;;;;;;13.80;99.90;;;;;;5006226;28;19989;-69
2023/08/02 03:39:59;;;;;;;;;;;13.80;99.90;;;;;;5005635;28;20012;-69
2023/08/02 03:42:26;;;;;;;;;;;13.80;99.90;;;;;;5006052;28;19922;-69
2023/08/02 03:44:52;;;;;;;;;;;13.80;99.90;;;;;;5006045;28;20161;-69
2023/08/02 03:47:19;;;;;;;;;;;13.80;99.90;;;;;;5005702;28;19964;-69
2023/08/02 03:49:45;;;;;;;;;;;13.70;99.90;;;;;;5005654;28;19984;-69
2023/08/02 03:52:12;;;;;;;;;;;13.80;99.90;;;;;;5005756;28;19997;-69
2023/08/02 03:54:40;;;;;;;;;;;13.80;99.90;;;;;;5005501;28;20205;-69
2023/08/02 03:57:07;;;;;;;;;;;13.70;99.90;;;;;;5005769;28;19985;-69
2023/08/02 03:59:35;;;;;;;;;;;13.70;99.90;;;;;;5005313;28;19953;-69
2023/08/02 04:02:01;;;;;;;;;;;13.70;99.90;;;;;;5004835;28;19922;-69
2023/08/02 04:04:28;;;;;;;;;;;13.80;99.90;;;;;;5005370;28;19957;-69
2023/08/02 04:06:54;;;;;;;;;;;13.70;99.90;;;;;;5005465;28;19989;-69
2023/08/02 04:09:21;;;;;;;;;;;13.70;99.90;;;;;;5005411;28;20145;-69
2023/08/02 04:17:54;;;;;;;;;;;13.70;99.90;;;;;;4945197;29;20175;-69
2023/08/02 04:20:21;;;;;;;;;;;13.70;99.90;;;;;;4986239;28;19989;-69
2023/08/02 04:22:49;;;;;;;;;;;13.80;99.90;;;;;;5005217;28;19985;-69
2023/08/02 04:25:16;;;;;;;;;;;13.70;99.90;;;;;;5003046;28;19928;-69
2023/08/02 04:28:18;;;;;;;;;;;13.70;99.90;;;;;;4985704;28;19929;-69
2023/08/02 04:33:52;;;;;;;;;;;13.80;99.90;;;;;;4885132;29;20215;-69
2023/08/02 04:36:20;;;;;;;;;;;13.80;99.90;;;;;;4906780;29;19927;-69
2023/08/02 04:38:46;;;;;;;;;;;13.70;99.90;;;;;;4915129;28;19955;-69
2023/08/02 04:41:24;;;;;;;;;;;13.70;99.90;;;;;;4984525;28;19922;-69
2023/08/02 04:43:57;;;;;;;;;;;13.80;99.90;;;;;;4985094;28;20217;-69
2023/08/02 04:46:25;;;;;;;;;;;13.80;99.90;;;;;;4985123;28;20138;-68
2023/08/02 04:48:54;;;;;;;;;;;13.80;99.90;;;;;;4985431;28;19953;-69
2023/08/02 04:51:23;;;;;;;;;;;13.80;99.90;;;;;;4984608;28;19960;-68
2023/08/02 04:53:56;;;;;;;;;;;13.80;99.90;;;;;;4984859;28;19993;-69
2023/08/02 04:56:22;;;;;;;;;;;13.80;99.90;;;;;;4985624;28;20170;-69
2023/08/02 04:58:49;;;;;;;;;;;13.80;99.90;;;;;;5000171;28;19922;-69
2023/08/02 05:01:15;;;;;;;;;;;13.70;99.90;;;;;;5004212;28;20280;-68
2023/08/02 05:03:43;;;;;;;;;;;13.80;99.90;;;;;;5004254;28;19922;-68
2023/08/02 05:06:11;;;;;;;;;;;13.80;99.90;;;;;;5004582;28;19945;-69
2023/08/02 05:08:37;;;;;;;;;;;13.80;99.90;;;;;;5004488;28;19921;-69
2023/08/02 05:11:05;;;;;;;;;;;13.90;99.90;;;;;;5004374;28;19988;-69
2023/08/02 05:13:31;;;;;;;;;;;13.90;99.90;;;;;;5004340;28;19989;-70
2023/08/02 05:15:58;;;;;;;;;;;13.90;99.90;;;;;;5004578;28;19949;-69
2023/08/02 05:18:25;;;;;;;;;;;13.90;99.90;;;;;;5004462;28;19988;-69
2023/08/02 05:20:51;;;;;;;;;;;14.00;99.90;;;;;;5004223;28;19985;-71
2023/08/02 05:23:19;;;;;;;;;;;14.00;99.90;;;;;;5004445;28;19992;-71
2023/08/02 05:25:46;;;;;;;;;;;14.00;99.90;;;;;;5004175;28;20001;-70
2023/08/02 05:28:12;;;;;;;;;;;14.10;99.90;;;;;;5004461;28;19989;-71
2023/08/02 05:30:39;;;;;;;;;;;14.10;99.90;;;;;;5003964;28;20285;-71
2023/08/02 05:33:07;;;;;;;;;;;14.10;99.90;;;;;;5004022;28;19922;-71
2023/08/02 05:35:34;;;;;;;;;;;14.10;99.90;;;;;;5004345;28;19921;-72
2023/08/02 05:38:00;;;;;;;;;;;14.20;99.90;;;;;;5004375;28;19980;-71
2023/08/02 05:40:28;;;;;;;;;;;14.20;99.90;;;;;;5003865;28;19957;-70
2023/08/02 05:42:55;;;;;;;;;;;14.20;99.90;;;;;;5004320;28;19997;-71
2023/08/02 05:45:21;;;;;;;;;;;14.30;99.90;;;;;;5003977;28;19990;-71
2023/08/02 05:47:49;;;;;;;;;;;14.30;99.90;;;;;;5004301;28;19922;-71
2023/08/02 05:50:16;;;;;;;;;;;14.40;99.90;;;;;;5003822;28;20256;-71
2023/08/02 05:52:43;;;;;;;;;;;14.30;99.90;;;;;;5004233;28;20062;-70
2023/08/02 05:55:09;;;;;;;;;;;14.40;99.90;;;;;;5003767;28;19922;-71
2023/08/02 05:57:37;;;;;;;;;;;14.40;99.90;;;;;;5004204;28;19926;-71
2023/08/02 06:00:04;;;;;;;;;;;14.50;99.90;;;;;;5003715;28;20176;-71
2023/08/02 06:02:31;;;;;;;;;;;14.50;99.90;;;;;;5003834;28;19989;-71
2023/08/02 06:04:58;;;;;;;;;;;14.50;99.90;;;;;;5007268;28;19988;-71
2023/08/02 06:07:24;;;;;;;;;;;14.60;99.90;;;;;;5007857;28;19988;-70
2023/08/02 06:09:51;;;;;;;;;;;14.60;99.90;;;;;;5007535;28;19949;-70
2023/08/02 06:12:17;;;;;;;;;;;14.60;99.90;;;;;;5007399;28;19993;-71
2023/08/02 06:14:45;;;;;;;;;;;14.60;99.90;;;;;;5007246;28;19989;-71
2023/08/02 06:17:12;;;;;;;;;;;14.60;99.90;;;;;;5007650;28;20184;-72
2023/08/02 06:19:39;;;;;;;;;;;14.60;99.90;;;;;;5007148;28;19985;-71
2023/08/02 06:22:05;;;;;;;;;;;14.60;99.90;;;;;;5007530;28;19957;-71
2023/08/02 06:24:32;;;;;;;;;;;14.60;99.90;;;;;;5007576;28;20319;-70
2023/08/02 06:26:58;;;;;;;;;;;14.60;99.90;;;;;;5007562;28;19989;-72
2023/08/02 06:29:25;;;;;;;;;;;14.70;99.90;;;;;;5007327;28;19989;-71
2023/08/02 06:31:54;;;;;;;;;;;14.80;99.90;;;;;;5007515;28;20157;-70
2023/08/02 06:34:20;;;;;;;;;;;14.70;99.90;;;;;;5006928;28;19921;-71
2023/08/02 06:36:47;;;;;;;;;;;14.80;99.90;;;;;;5007323;28;19992;-71
2023/08/02 06:39:13;;;;;;;;;;;14.80;99.90;;;;;;5006906;28;20208;-71
2023/08/02 06:41:40;;;;;;;;;;;14.90;99.90;;;;;;5007067;28;19964;-71
2023/08/02 06:44:07;;;;;;;;;;;14.90;99.90;;;;;;5006776;28;19985;-72
2023/08/02 06:46:34;;;;;;;;;;;14.90;99.90;;;;;;5007119;28;19957;-71
2023/08/02 06:49:01;;;;;;;;;;;14.90;99.90;;;;;;5007116;28;19929;-71
2023/08/02 06:51:28;;;;;;;;;;;14.90;99.90;;;;;;5007035;28;20001;-71
2023/08/02 06:53:57;;;;;;;;;;;14.90;99.90;;;;;;5006620;28;19922;-71
2023/08/02 06:56:24;;;;;;;;;;;14.90;99.90;;;;;;5006774;28;20162;-71
2023/08/02 06:58:51;;;;;;;;;;;14.90;99.90;;;;;;5007020;28;19985;-71
2023/08/02 07:01:18;;;;;;;;;;;14.90;99.90;;;;;;5006737;28;19984;-71
2023/08/02 07:03:46;;;;;;;;;;;15.00;99.90;;;;;;5006816;28;19985;-70
2023/08/02 07:06:14;;;;;;;;;;;14.90;99.90;;;;;;5006488;28;19985;-70
2023/08/02 07:08:41;;;;;;;;;;;14.90;99.90;;;;;;5006784;28;19957;-71
2023/08/02 07:11:08;;;;;;;;;;;14.90;99.90;;;;;;5006184;28;19980;-70
2023/08/02 07:13:36;;;;;;;;;;;14.90;99.90;;;;;;5006593;28;19921;-70
2023/08/02 07:16:03;;;;;;;;;;;14.90;99.90;;;;;;5005894;28;19922;-70
2023/08/02 07:18:29;;;;;;;;;;;14.90;99.90;;;;;;5006199;28;19991;-70
2023/08/02 07:20:56;;;;;;;;;;;14.90;99.90;;;;;;5006220;28;19930;-71
2023/08/02 07:23:24;;;;;;;;;;;14.90;99.90;;;;;;5006000;28;19922;-71
2023/08/02 07:25:50;;;;;;;;;;;15.00;99.90;;;;;;5006184;28;20252;-71
2023/08/02 07:28:17;;;;;;;;;;;15.00;99.90;;;;;;5006381;28;19985;-71
2023/08/02 07:30:45;;;;;;;;;;;15.00;99.90;;;;;;5005936;28;19993;-71
2023/08/02 07:33:11;;;;;;;;;;;15.00;99.90;;;;;;4986819;28;19972;-71
2023/08/02 07:35:38;;;;;;;;;;;15.00;99.90;;;;;;4986535;28;19922;-71
2023/08/02 07:38:04;;;;;;;;;;;15.00;99.90;;;;;;4986741;28;19922;-71
2023/08/02 07:40:32;;;;;;;;;;;15.00;99.90;;;;;;4999411;28;19985;-71
2023/08/02 07:42:59;;;;;;;;;;;15.00;99.90;;;;;;5006075;28;19922;-70
2023/08/02 07:45:26;;;;;;;;;;;15.00;99.90;;;;;;5006148;28;19922;-71
2023/08/02 07:47:52;;;;;;;;;;;15.10;99.90;;;;;;5006053;28;19985;-70
2023/08/02 07:50:19;;;;;;;;;;;15.10;99.90;;;;;;5005940;28;20128;-71
2023/08/02 07:52:45;;;;;;;;;;;15.20;99.90;;;;;;5005850;28;19922;-71
2023/08/02 07:55:12;;;;;;;;;;;15.20;99.90;;;;;;5005430;28;20288;-71
2023/08/02 07:57:40;;;;;;;;;;;15.30;99.90;;;;;;5005905;28;19993;-71
2023/08/02 08:00:07;;;;;;;;;;;15.40;99.90;;;;;;5005517;28;20116;-70
2023/08/02 08:02:34;;;;;;;;;;;15.40;99.90;;;;;;5004834;28;19922;-71
2023/08/02 08:05:00;;;;;;;;;;;15.40;99.90;;;;;;5005533;28;19989;-70
2023/08/02 08:07:27;;;;;;;;;;;15.40;99.90;;;;;;5005361;28;20236;-71
2023/08/02 08:09:54;;;;;;;;;;;15.50;99.90;;;;;;4998517;28;19989;-70
2023/08/02 08:12:20;;;;;;;;;;;15.60;99.90;;;;;;5002459;28;20237;-71
2023/08/02 08:14:48;;;;;;;;;;;15.70;99.90;;;;;;5005196;28;20000;-70
2023/08/02 08:17:15;;;;;;;;;;;15.70;99.90;;;;;;5005254;28;19992;-71
2023/08/02 08:19:42;;;;;;;;;;;15.70;99.90;;;;;;5005105;28;19989;-72
2023/08/02 08:22:08;;;;;;;;;;;15.80;99.90;;;;;;5005341;28;19926;-71
2023/08/02 08:24:35;;;;;;;;;;;15.90;99.90;;;;;;5005258;28;19922;-71
2023/08/02 08:27:02;;;;;;;;;;;15.90;99.90;;;;;;5004049;28;20168;-71
2023/08/02 08:29:29;;;;;;;;;;;15.90;99.90;;;;;;5004717;28;19921;-71
2023/08/02 08:31:57;;;;;;;;;;;16.00;99.90;;;;;;5004818;28;19989;-71
2023/08/02 08:34:23;;;;;;;;;;;16.10;99.90;;;;;;5005073;28;19992;-71
2023/08/02 08:36:50;;;;;;;;;;;16.10;99.90;;;;;;5004730;28;19989;-71
2023/08/02 08:39:18;;;;;;;;;;;16.20;99.90;;;;;;5004921;28;19922;-71
2023/08/02 08:41:44;;;;;;;;;;;16.30;99.90;;;;;;5004650;28;20238;-71
2023/08/02 08:44:11;;;;;;;;;;;16.30;99.90;;;;;;5004894;28;19988;-71
2023/08/02 08:46:38;;;;;;;;;;;16.30;99.90;;;;;;5004677;28;19957;-71
2023/08/02 08:49:06;;;;;;;;;;;16.30;99.90;;;;;;5004781;28;20090;-70
2023/08/02 08:51:34;;;;;;;;;;;16.30;99.90;;;;;;5004409;28;20260;-71
2023/08/02 08:54:02;;;;;;;;;;;16.40;99.90;;;;;;5004587;28;19922;-72
2023/08/02 08:56:29;;;;;;;;;;;16.40;99.90;;;;;;5004532;28;19984;-71
2023/08/02 08:58:59;;;;;;;;;;;16.40;99.90;;;;;;5004731;28;19985;-70
2023/08/02 09:01:26;;;;;;;;;;;16.40;99.90;;;;;;5004456;28;19921;-71
2023/08/02 09:03:52;;;;;;;;;;;16.40;99.90;;;;;;5004706;28;20012;-72
2023/08/02 09:06:21;;;;;;;;;;;16.40;99.90;;;;;;5004698;28;19922;-70
2023/08/02 09:08:48;;;;;;;;;;;16.40;99.90;;;;;;5004706;28;19964;-71
2023/08/02 09:11:16;;;;;;;;;;;16.40;99.90;;;;;;5004172;28;20141;-71
2023/08/02 09:13:43;;;;;;;;;;;16.40;99.90;;;;;;5004442;28;19976;-71
2023/08/02 09:16:10;;;;;;;;;;;16.40;99.90;;;;;;5004399;28;20009;-71
2023/08/02 09:18:38;;;;;;;;;;;16.40;99.90;;;;;;5004251;28;20238;-71
2023/08/02 09:21:05;;;;;;;;;;;16.50;99.90;;;;;;5004368;28;19953;-71
2023/08/02 09:23:33;;;;;;;;;;;16.50;99.90;;;;;;5004540;28;19984;-71
2023/08/02 09:26:18;;;;;;;;;;;16.50;99.90;;;;;;5004190;28;19984;-71
2023/08/02 09:29:01;;;;;;;;;;;16.60;99.90;;;;;;5004416;28;20160;-71
2023/08/02 09:31:28;;;;;;;;;;;16.60;99.90;;;;;;5004083;28;19953;-71
2023/08/02 09:33:55;;;;;;;;;;;16.60;99.90;;;;;;5004286;28;19922;-71
2023/08/02 09:36:22;;;;;;;;;;;16.60;99.90;;;;;;5004182;28;20276;-71
2023/08/02 09:39:02;;;;;;;;;;;16.60;99.90;;;;;;5006382;28;19984;-70
2023/08/02 09:41:29;;;;;;;;;;;16.60;99.90;;;;;;5008352;28;19957;-71
2023/08/02 09:43:56;;;;;;;;;;;16.70;99.90;;;;;;5008160;28;19960;-71
2023/08/02 09:46:24;;;;;;;;;;;16.70;99.90;;;;;;5008227;28;19957;-71
2023/08/02 09:48:50;;;;;;;;;;;16.70;99.90;;;;;;5007933;28;20206;-71
2023/08/02 09:51:17;;;;;;;;;;;16.70;99.90;;;;;;5007970;28;19985;-71
2023/08/02 09:53:53;;;;;;;;;;;16.70;99.90;;;;;;5007648;28;20268;-71
2023/08/02 09:56:22;;;;;;;;;;;16.70;99.90;;;;;;5008119;28;19957;-71
2023/08/02 09:58:49;;;;;;;;;;;16.60;99.90;;;;;;5008074;28;19961;-71
2023/08/02 10:01:16;;;;;;;;;;;16.60;99.90;;;;;;5007538;28;19964;-71
2023/08/02 10:03:43;;;;;;;;;;;16.60;99.90;;;;;;5007875;28;19964;-71
2023/08/02 10:06:10;;;;;;;;;;;16.50;99.90;;;;;;5007675;28;19922;-71
2023/08/02 10:08:38;;;;;;;;;;;16.50;99.90;;;;;;5007834;28;19983;-71
2023/08/02 10:11:05;;;;;;;;;;;16.50;99.90;;;;;;5007680;28;19961;-71
2023/08/02 10:13:38;;;;;;;;;;;16.50;99.90;;;;;;5007550;28;19984;-71
2023/08/02 10:16:05;;;;;;;;;;;16.40;99.90;;;;;;5007774;28;19960;-71
2023/08/02 10:18:32;;;;;;;;;;;16.40;99.90;;;;;;5007889;28;19922;-71
2023/08/02 10:21:00;;;;;;;;;;;16.50;99.90;;;;;;5006546;28;19964;-72
2023/08/02 10:23:27;;;;;;;;;;;16.50;99.90;;;;;;5007598;28;19953;-71
2023/08/02 10:25:55;;;;;;;;;;;16.50;99.90;;;;;;5007304;28;20201;-72
2023/08/02 10:28:21;;;;;;;;;;;16.50;99.90;;;;;;5007574;28;19953;-71
2023/08/02 10:30:49;;;;;;;;;;;16.60;99.90;;;;;;5007194;28;19933;-71
2023/08/02 10:33:22;;;;;;;;;;;16.60;99.90;;;;;;5006690;28;19928;-71
2023/08/02 10:36:02;;;;;;;;;;;16.60;99.90;;;;;;5006672;28;19957;-72
2023/08/02 10:38:29;;;;;;;;;;;16.50;99.90;;;;;;5007318;28;19921;-70
2023/08/02 10:41:03;;;;;;;;;;;16.50;99.90;;;;;;5006985;28;19922;-71
2023/08/02 10:43:30;;;;;;;;;;;16.50;99.90;;;;;;5007279;28;20240;-71
2023/08/02 10:49:33;;;;;;;;;;;16.50;99.90;;;;;;5005407;28;19968;-71
2023/08/02 10:52:22;;;;;;;;;;;16.50;99.90;;;;;;4999223;28;19988;-70
2023/08/02 10:55:03;;;;;;;;;;;16.60;99.90;;;;;;5006508;28;19922;-70
2023/08/02 10:57:30;;;;;;;;;;;16.60;99.90;;;;;;5006993;28;19984;-70
2023/08/02 10:59:57;;;;;;;;;;;16.60;99.90;;;;;;5006327;28;19957;-71
2023/08/02 11:02:25;;;;;;;;;;;16.60;99.90;;;;;;5005638;28;19922;-70
2023/08/02 11:04:53;;;;;;;;;;;16.70;99.90;;;;;;5006896;28;19996;-71
2023/08/02 11:07:21;;;;;;;;;;;16.70;99.90;;;;;;5006813;28;19922;-72
2023/08/02 11:09:49;;;;;;;;;;;16.80;99.90;;;;;;5006663;28;19949;-71
2023/08/02 11:12:23;;;;;;;;;;;16.90;99.90;;;;;;5006236;28;20153;-71
2023/08/02 11:15:14;;;;;;;;;;;16.90;99.90;;;;;;5006021;28;19996;-71
2023/08/02 11:17:41;;;;;;;;;;;17.10;99.90;;;;;;5006723;28;20112;-71
2023/08/02 11:20:10;;;;;;;;;;;17.10;99.90;;;;;;5006384;28;19921;-71
2023/08/02 11:22:36;;;;;;;;;;;17.20;99.90;;;;;;5006437;28;19968;-72
2023/08/02 11:25:07;;;;;;;;;;;17.10;99.90;;;;;;5005685;28;19922;-71
2023/08/02 11:27:34;;;;;;;;;;;17.10;99.90;;;;;;5006532;28;19922;-71
2023/08/02 11:30:01;;;;;;;;;;;17.10;99.90;;;;;;5006005;28;19921;-72
2023/08/02 11:32:28;;;;;;;;;;;17.10;99.90;;;;;;5005199;28;19960;-71
2023/08/02 11:34:55;;;;;;;;;;;17.10;99.90;;;;;;5005758;28;19968;-72
2023/08/02 11:37:23;;;;;;;;;;;17.20;99.90;;;;;;5006182;28;19957;-71
2023/08/02 11:39:53;;;;;;;;;;;17.20;99.90;;;;;;5006031;28;19993;-71
2023/08/02 11:42:19;;;;;;;;;;;17.30;99.90;;;;;;5006064;28;20281;-71
2023/08/02 11:44:46;;;;;;;;;;;17.30;99.90;;;;;;5005777;28;19921;-71
2023/08/02 11:47:13;;;;;;;;;;;17.30;99.90;;;;;;5005715;28;19960;-71
2023/08/02 11:49:52;;;;;;;;;;;17.20;99.90;;;;;;5005588;28;19929;-70
2023/08/02 11:52:27;;;;;;;;;;;17.20;99.90;;;;;;5005930;28;19921;-71
2023/08/02 11:54:54;;;;;;;;;;;17.30;99.90;;;;;;5005176;28;20272;-72
2023/08/02 11:57:21;;;;;;;;;;;17.30;99.90;;;;;;5005876;28;19949;-71
2023/08/02 11:59:48;;;;;;;;;;;17.30;99.90;;;;;;5005533;28;20161;-71
2023/08/02 12:02:25;;;;;;;;;;;17.30;99.90;;;;;;5005465;28;19921;-71
2023/08/02 12:04:51;;;;;;;;;;;17.30;99.90;;;;;;5005532;28;20277;-71
2023/08/02 12:07:24;;;;;;;;;;;17.30;99.90;;;;;;5005706;28;20052;-71
2023/08/02 12:09:53;;;;;;;;;;;17.30;99.90;;;;;;5005408;28;19988;-71
2023/08/02 12:12:19;;;;;;;;;;;17.30;99.90;;;;;;5005509;28;19925;-72
2023/08/02 12:14:46;;;;;;;;;;;17.30;99.90;;;;;;5005353;28;19972;-72
2023/08/02 12:17:16;;;;;;;;;;;17.40;99.90;;;;;;5005324;28;19949;-71
2023/08/02 12:19:43;;;;;;;;;;;17.40;99.90;;;;;;5005077;28;19922;-71
2023/08/02 12:22:10;;;;;;;;;;;17.40;99.90;;;;;;5005494;28;20167;-71
2023/08/02 12:24:36;;;;;;;;;;;17.40;99.90;;;;;;5005365;28;19989;-72
2023/08/02 12:27:15;;;;;;;;;;;17.40;99.90;;;;;;5005077;28;20025;-71
2023/08/02 12:29:42;;;;;;;;;;;17.40;99.90;;;;;;5004798;28;19922;-71
2023/08/02 12:32:08;;;;;;;;;;;17.50;99.90;;;;;;5004872;28;19922;-71
2023/08/02 12:34:45;;;;;;;;;;;17.40;99.90;;;;;;5004383;28;20116;-71
2023/08/02 12:37:11;;;;;;;;;;;17.40;99.90;;;;;;5005176;28;19922;-71
2023/08/02 12:39:38;;;;;;;;;;;17.40;99.90;;;;;;5004637;28;19980;-71
2023/08/02 12:42:06;;;;;;;;;;;17.50;99.90;;;;;;5005162;28;19985;-71
2023/08/02 12:44:34;;;;;;;;;;;17.50;99.90;;;;;;5004814;28;19922;-71
2023/08/02 12:47:01;;;;;;;;;;;17.50;99.90;;;;;;5005097;28;19961;-71
2023/08/02 12:49:28;;;;;;;;;;;17.50;99.90;;;;;;5004351;28;19922;-71
2023/08/02 12:51:54;;;;;;;;;;;17.50;99.90;;;;;;5004814;28;19981;-71
2023/08/02 12:54:21;;;;;;;;;;;17.50;99.90;;;;;;5004591;28;19981;-71
2023/08/02 12:56:48;;;;;;;;;;;17.50;99.90;;;;;;5004827;28;19953;-71
2023/08/02 12:59:14;;;;;;;;;;;17.60;99.90;;;;;;5004639;28;20160;-71
2023/08/02 13:01:42;;;;;;;;;;;17.60;99.90;;;;;;5004270;28;19985;-71
2023/08/02 13:04:09;;;;;;;;;;;17.60;99.90;;;;;;5004465;28;19949;-72
2023/08/02 13:06:35;;;;;;;;;;;17.60;99.90;;;;;;5004101;28;19953;-72
2023/08/02 13:09:02;;;;;;;;;;;17.60;99.90;;;;;;5004386;28;19929;-71
2023/08/02 13:11:29;;;;;;;;;;;17.60;99.90;;;;;;5004205;28;20288;-71
2023/08/02 13:13:55;;;;;;;;;;;17.70;99.90;;;;;;5004062;28;19922;-71
2023/08/02 13:16:22;;;;;;;;;;;17.60;99.90;;;;;;5004531;28;20176;-71
2023/08/02 13:18:50;;;;;;;;;;;17.70;99.90;;;;;;5004672;28;19925;-71
2023/08/02 13:21:19;;;;;;;;;;;17.70;99.90;;;;;;4984664;28;19993;-70
2023/08/02 13:23:47;;;;;;;;;;;17.70;99.90;;;;;;4984677;28;19930;-72
2023/08/02 13:26:13;;;;;;;;;;;17.80;99.90;;;;;;4984746;28;19923;-71
2023/08/02 13:28:40;;;;;;;;;;;17.90;99.90;;;;;;4984892;28;19954;-72
2023/08/02 13:31:07;;;;;;;;;;;17.90;99.90;;;;;;4984842;28;19989;-71
2023/08/02 13:34:06;;;;;;;;;;;17.90;99.90;;;;;;4984036;28;19922;-71
2023/08/02 13:36:34;;;;;;;;;;;18.00;99.90;;;;;;4984997;28;20185;-71
2023/08/02 13:39:00;;;;;;;;;;;18.00;99.90;;;;;;4984980;28;20091;-72
2023/08/02 13:41:27;;;;;;;;;;;18.10;99.90;;;;;;5000339;28;19989;-71
2023/08/02 13:43:53;;;;;;;;;;;18.10;99.90;;;;;;5004112;28;19989;-71
2023/08/02 13:46:20;;;;;;;;;;;18.20;99.90;;;;;;5004239;28;19944;-70
2023/08/02 13:48:47;;;;;;;;;;;18.30;99.90;;;;;;5004119;28;20202;-72
2023/08/02 13:51:14;;;;;;;;;;;18.30;99.90;;;;;;5004115;28;19922;-71
2023/08/02 13:53:42;;;;;;;;;;;18.30;99.90;;;;;;5004091;28;19985;-71
2023/08/02 13:56:08;;;;;;;;;;;18.30;99.90;;;;;;5003875;28;19984;-71
2023/08/02 13:58:35;;;;;;;;;;;18.30;99.90;;;;;;5004235;28;20053;-72
2023/08/02 14:01:01;;;;;;;;;;;18.30;99.90;;;;;;5003524;28;19981;-70
2023/08/02 14:03:28;;;;;;;;;;;18.30;99.90;;;;;;5004151;28;19957;-70
2023/08/02 14:05:55;;;;;;;;;;;18.20;99.90;;;;;;5004151;28;19990;-71
2023/08/02 14:08:21;;;;;;;;;;;18.20;99.90;;;;;;5003966;28;19964;-71
2023/08/02 14:10:49;;;;;;;;;;;18.20;99.90;;;;;;5003828;28;19984;-71
2023/08/02 14:13:16;;;;;;;;;;;18.20;99.90;;;;;;5003804;28;19985;-71
2023/08/02 14:15:42;;;;;;;;;;;18.30;99.90;;;;;;5003711;28;20209;-71
2023/08/02 14:18:09;;;;;;;;;;;18.30;99.90;;;;;;5003972;28;19988;-71
2023/08/02 14:20:36;;;;;;;;;;;18.30;99.90;;;;;;5003678;28;19985;-72
2023/08/02 14:23:03;;;;;;;;;;;18.40;99.90;;;;;;5003908;28;19921;-72
2023/08/02 14:25:29;;;;;;;;;;;18.30;99.90;;;;;;5006598;28;19989;-71
2023/08/02 14:27:57;;;;;;;;;;;18.30;99.90;;;;;;5007348;28;19953;-71
2023/08/02 14:30:24;;;;;;;;;;;18.30;99.90;;;;;;5006262;28;19921;-71
2023/08/02 14:32:50;;;;;;;;;;;18.30;99.90;;;;;;5007440;28;19989;-71